Time;durP1;ratioP1;P1;durP2;ratioP2;P2;SDS_P1;SDS_P2;PMS_P1;PMS_P2;Temp;Humidity;BMP_temperature;BMP_pressure;BME280_temperature;BME280_humidity;BME280_pressure;Samples;Min_cycle;Max_cycle;Signal;HPM_P1;HPM_P2
2020/12/22 00:01:18;;;;;;;8.60;4.43;;;8.10;99.90;;;;;;5084386;28;20034;-76
2020/12/22 00:03:44;;;;;;;9.68;4.30;;;8.10;99.90;;;;;;5084378;28;20021;-79
2020/12/22 00:06:11;;;;;;;19.17;4.70;;;8.10;99.90;;;;;;5084426;28;20033;-77
2020/12/22 00:08:37;;;;;;;8.73;4.20;;;8.10;99.90;;;;;;5085844;28;20035;-76
2020/12/22 00:11:03;;;;;;;6.70;3.80;;;8.10;99.90;;;;;;5085933;28;20032;-76
2020/12/22 00:13:29;;;;;;;8.10;4.10;;;8.10;99.90;;;;;;5084660;28;20016;-76
2020/12/22 00:15:54;;;;;;;9.60;5.53;;;8.20;99.90;;;;;;5084091;28;20056;-77
2020/12/22 00:18:20;;;;;;;9.48;4.25;;;8.20;99.90;;;;;;5084312;28;20029;-76
2020/12/22 00:20:45;;;;;;;6.47;3.70;;;8.20;99.90;;;;;;5085644;28;20028;-81
2020/12/22 00:23:11;;;;;;;10.13;4.53;;;8.20;99.90;;;;;;5084280;28;20028;-78
2020/12/22 00:25:48;;;;;;;8.55;4.57;;;8.30;99.90;;;;;;5085372;28;20158;-79
2020/12/22 00:28:15;;;;;;;8.77;4.53;;;8.30;99.90;;;;;;5084049;28;20036;-78
2020/12/22 00:30:41;;;;;;;7.28;4.50;;;8.30;99.90;;;;;;5084079;28;20028;-78
2020/12/22 00:33:07;;;;;;;8.93;4.90;;;8.30;99.90;;;;;;5083925;28;20487;-79
2020/12/22 00:35:32;;;;;;;7.70;3.85;;;8.40;99.90;;;;;;5085367;28;20048;-78
2020/12/22 00:37:59;;;;;;;6.65;3.80;;;8.40;99.90;;;;;;5084039;28;20055;-82
2020/12/22 00:40:25;;;;;;;9.35;3.83;;;8.40;99.90;;;;;;5085504;28;20420;-79
2020/12/22 00:42:51;;;;;;;5.78;3.50;;;8.40;99.90;;;;;;5083779;28;20025;-80
2020/12/22 00:45:17;;;;;;;6.45;3.67;;;8.40;99.90;;;;;;5083822;28;20024;-78
2020/12/22 00:47:43;;;;;;;6.82;3.00;;;8.40;99.90;;;;;;5083675;28;20094;-78
2020/12/22 00:50:08;;;;;;;12.65;3.40;;;8.50;99.90;;;;;;5083485;28;20445;-82
2020/12/22 00:52:34;;;;;;;6.40;3.67;;;8.40;99.90;;;;;;5083632;28;20029;-82
2020/12/22 00:55:00;;;;;;;10.38;4.05;;;8.50;99.90;;;;;;5082798;28;20116;-81
2020/12/22 00:57:25;;;;;;;6.80;3.83;;;8.50;99.90;;;;;;5085306;28;20040;-79
2020/12/22 00:59:57;;;;;;;7.25;4.07;;;8.50;99.90;;;;;;5083381;28;20025;-79
2020/12/22 01:02:23;;;;;;;4.53;2.63;;;8.50;99.90;;;;;;5084590;28;20130;-80
2020/12/22 01:04:50;;;;;;;8.18;3.30;;;8.50;99.90;;;;;;5083341;28;20888;-80
2020/12/22 01:07:17;;;;;;;6.63;3.35;;;8.50;99.90;;;;;;5084642;28;20027;-80
2020/12/22 01:09:43;;;;;;;16.05;4.00;;;8.50;99.90;;;;;;5083220;28;20025;-80
2020/12/22 01:12:08;;;;;;;4.75;2.92;;;8.60;99.90;;;;;;5084614;28;20100;-80
2020/12/22 01:14:34;;;;;;;9.63;3.75;;;8.60;99.90;;;;;;5083165;28;20047;-78
2020/12/22 01:17:00;;;;;;;4.75;2.65;;;8.60;99.90;;;;;;5083374;28;20040;-80
2020/12/22 01:19:25;;;;;;;5.38;2.92;;;8.60;99.90;;;;;;5083092;28;20032;-78
2020/12/22 01:21:54;;;;;;;7.13;2.65;;;8.60;99.90;;;;;;5083024;28;20100;-81
2020/12/22 01:24:21;;;;;;;8.48;2.83;;;8.70;99.90;;;;;;5084600;28;20134;-81
2020/12/22 01:26:48;;;;;;;5.40;3.20;;;8.70;99.90;;;;;;5083192;28;20024;-78
2020/12/22 01:29:14;;;;;;;5.97;3.00;;;8.70;99.90;;;;;;5083005;28;20028;-81
2020/12/22 01:31:39;;;;;;;8.57;3.42;;;8.70;99.90;;;;;;5083077;28;20067;-81
2020/12/22 01:34:05;;;;;;;7.93;3.50;;;8.80;99.90;;;;;;5082884;28;20040;-79
2020/12/22 01:36:31;;;;;;;4.45;1.92;;;8.80;99.90;;;;;;5082909;28;20111;-81
2020/12/22 01:38:57;;;;;;;6.60;2.95;;;8.80;99.90;;;;;;5083363;28;20035;-80
2020/12/22 01:41:23;;;;;;;5.18;3.72;;;8.80;99.90;;;;;;5082952;28;20037;-81
2020/12/22 01:44:02;;;;;;;6.00;2.72;;;8.80;99.90;;;;;;5084033;28;20088;-80
2020/12/22 01:46:40;;;;;;;5.55;2.72;;;8.80;99.90;;;;;;5083220;28;20095;-79
2020/12/22 01:49:18;;;;;;;13.57;3.47;;;8.90;99.90;;;;;;5084421;28;20028;-79
2020/12/22 01:51:45;;;;;;;5.85;3.45;;;8.90;99.90;;;;;;5082878;28;20485;-78
2020/12/22 01:54:13;;;;;;;5.75;2.25;;;8.90;99.90;;;;;;5084180;28;20213;-78
2020/12/22 01:56:39;;;;;;;5.93;3.00;;;9.00;99.90;;;;;;5082693;28;20032;-79
2020/12/22 01:59:04;;;;;;;6.35;3.40;;;9.00;99.90;;;;;;5082864;28;20504;-79
2020/12/22 02:01:31;;;;;;;4.15;2.70;;;9.00;99.90;;;;;;5084380;28;20048;-80
2020/12/22 02:04:01;;;;;;;5.70;3.17;;;9.00;99.90;;;;;;5083998;28;20107;-81
2020/12/22 02:06:32;;;;;;;6.00;3.40;;;9.00;99.90;;;;;;5086272;28;20032;-80
2020/12/22 02:08:59;;;;;;;4.35;2.83;;;9.00;99.90;;;;;;5086899;28;20024;-80
2020/12/22 02:11:30;;;;;;;6.60;3.30;;;9.10;99.90;;;;;;5086959;28;20035;-80
2020/12/22 02:13:57;;;;;;;5.32;2.97;;;9.10;99.90;;;;;;5086332;28;20032;-80
2020/12/22 02:16:26;;;;;;;4.80;2.67;;;9.10;99.90;;;;;;5086671;28;20144;-86
2020/12/22 02:18:54;;;;;;;4.57;2.88;;;9.10;99.90;;;;;;5086541;28;20039;-78
2020/12/22 02:21:21;;;;;;;8.10;3.58;;;9.20;99.90;;;;;;5086570;28;20495;-79
2020/12/22 02:23:52;;;;;;;4.57;2.42;;;9.20;99.90;;;;;;5086511;28;20036;-78
2020/12/22 02:26:25;;;;;;;4.22;2.20;;;9.20;99.90;;;;;;5105659;28;20064;-78
2020/12/22 02:28:55;;;;;;;3.95;2.22;;;9.20;99.90;;;;;;5106568;28;20103;-79
2020/12/22 02:31:25;;;;;;;7.07;2.90;;;9.20;99.90;;;;;;5108088;28;20084;-78
2020/12/22 02:33:51;;;;;;;7.00;2.88;;;9.20;99.90;;;;;;5106510;28;20500;-78
2020/12/22 02:36:16;;;;;;;2.80;1.60;;;9.30;99.90;;;;;;5106438;28;20036;-79
2020/12/22 02:38:42;;;;;;;6.32;3.17;;;9.30;99.90;;;;;;5107858;28;20032;-79
2020/12/22 02:41:09;;;;;;;5.65;2.55;;;9.30;99.90;;;;;;5107678;28;20029;-79
2020/12/22 02:43:34;;;;;;;3.97;2.08;;;9.30;99.90;;;;;;5107840;28;20048;-79
2020/12/22 02:46:00;;;;;;;4.05;2.60;;;9.40;99.90;;;;;;5107836;28;20050;-82
2020/12/22 02:48:26;;;;;;;5.63;3.03;;;9.40;99.90;;;;;;5106589;28;20392;-81
2020/12/22 02:50:52;;;;;;;4.63;2.47;;;9.40;99.90;;;;;;5106233;28;20103;-78
2020/12/22 02:53:17;;;;;;;5.00;2.22;;;9.40;99.90;;;;;;5107429;28;20073;-81
2020/12/22 02:55:43;;;;;;;6.25;3.10;;;9.40;99.90;;;;;;5105991;28;20032;-79
2020/12/22 02:58:08;;;;;;;7.13;2.50;;;9.50;99.90;;;;;;5106171;28;20073;-78
2020/12/22 03:00:34;;;;;;;5.63;3.03;;;9.50;99.90;;;;;;5107460;28;20050;-81
2020/12/22 03:03:00;;;;;;;8.40;2.47;;;9.50;99.90;;;;;;5106180;28;20115;-80
2020/12/22 03:05:28;;;;;;;6.13;3.30;;;9.50;99.90;;;;;;5107416;28;20028;-80
2020/12/22 03:07:54;;;;;;;4.82;2.53;;;9.60;99.90;;;;;;5106148;28;20032;-80
2020/12/22 03:10:20;;;;;;;5.57;3.17;;;9.60;99.90;;;;;;5105831;28;20142;-80
2020/12/22 03:12:49;;;;;;;11.60;4.65;;;9.60;99.90;;;;;;5106832;28;20020;-84
2020/12/22 03:15:14;;;;;;;11.27;4.15;;;9.70;99.90;;;;;;5105477;28;20063;-84
2020/12/22 03:17:46;;;;;;;9.52;4.47;;;9.70;99.90;;;;;;5103842;28;20036;-80
2020/12/22 03:20:13;;;;;;;7.43;4.22;;;9.70;99.90;;;;;;5104252;28;20452;-83
2020/12/22 03:22:42;;;;;;;17.75;5.45;;;9.70;99.90;;;;;;5105981;28;20057;-82
2020/12/22 03:25:11;;;;;;;11.88;5.15;;;9.70;99.90;;;;;;5104021;28;20377;-82
2020/12/22 03:28:17;;;;;;;9.45;5.00;;;9.80;99.90;;;;;;5106350;28;20075;-86
2020/12/22 03:30:47;;;;;;;13.18;5.50;;;9.80;99.90;;;;;;5102826;28;20024;-87
2020/12/22 03:33:18;;;;;;;11.95;5.00;;;9.80;99.90;;;;;;5102687;28;20393;-86
2020/12/22 03:35:43;;;;;;;11.32;4.60;;;10.00;99.90;;;;;;5102231;28;20036;-80
2020/12/22 03:38:35;;;;;;;12.18;5.68;;;9.90;99.90;;;;;;5101682;28;20035;-85
2020/12/22 03:41:01;;;;;;;14.60;5.22;;;9.90;99.90;;;;;;5103561;28;20032;-86
2020/12/22 03:44:06;;;;;;;14.38;5.65;;;10.10;99.90;;;;;;5101591;28;20028;-85
2020/12/22 03:46:52;;;;;;;11.87;5.13;;;10.00;99.90;;;;;;5061546;28;20040;-87
2020/12/22 03:49:46;;;;;;;11.15;5.40;;;10.00;99.90;;;;;;5101296;28;20233;-83
2020/12/22 03:52:14;;;;;;;7.70;3.58;;;10.00;99.90;;;;;;5101789;28;20126;-80
2020/12/22 03:54:40;;;;;;;12.43;5.25;;;10.30;99.90;;;;;;5102699;28;20492;-80
2020/12/22 03:57:24;;;;;;;13.05;5.93;;;10.20;99.90;;;;;;5104294;28;20044;-85
2020/12/22 04:03:33;;;;;;;10.60;4.55;;;10.10;99.90;;;;;;5084574;28;20484;-82
2020/12/22 04:06:06;;;;;;;8.82;5.22;;;10.40;99.90;;;;;;5103718;28;20032;-81
2020/12/22 04:08:43;;;;;;;10.88;5.53;;;10.50;99.90;;;;;;5103098;28;20456;-82
2020/12/22 04:11:12;;;;;;;11.85;4.00;;;10.50;99.90;;;;;;5104073;28;20032;-85
2020/12/22 04:13:40;;;;;;;5.55;3.13;;;10.60;99.90;;;;;;5104076;28;20027;-82
2020/12/22 04:16:18;;;;;;;9.50;4.35;;;10.70;99.90;;;;;;5101326;28;20520;-81
2020/12/22 04:18:44;;;;;;;4.88;2.97;;;10.70;99.90;;;;;;5102092;28;20100;-77
2020/12/22 04:21:09;;;;;;;6.30;3.45;;;10.80;99.90;;;;;;5104112;28;20078;-85
2020/12/22 04:23:35;;;;;;;8.07;3.40;;;10.80;99.90;;;;;;5104282;28;20461;-85
2020/12/22 04:26:00;;;;;;;6.10;3.03;;;10.90;99.90;;;;;;5103912;28;20059;-83
2020/12/22 04:28:26;;;;;;;5.70;3.30;;;11.00;99.90;;;;;;5106523;28;20028;-83
2020/12/22 04:30:52;;;;;;;7.78;3.47;;;11.00;99.90;;;;;;5105993;28;20206;-83
2020/12/22 04:33:17;;;;;;;6.30;3.50;;;11.00;99.90;;;;;;5104375;28;20121;-85
2020/12/22 04:35:45;;;;;;;5.75;2.55;;;11.00;99.90;;;;;;5104672;28;20077;-80
2020/12/22 04:38:11;;;;;;;5.80;2.50;;;11.10;99.90;;;;;;5104057;28;20027;-83
2020/12/22 04:40:37;;;;;;;4.82;2.42;;;11.10;99.90;;;;;;5104624;28;20024;-84
2020/12/22 04:43:03;;;;;;;8.75;3.42;;;11.10;99.90;;;;;;5103624;28;20028;-88
2020/12/22 04:45:46;;;;;;;5.78;2.80;;;11.10;99.90;;;;;;5104039;28;20028;-87
2020/12/22 04:48:19;;;;;;;6.43;2.83;;;11.20;99.90;;;;;;5104872;28;20028;-82
2020/12/22 04:50:47;;;;;;;4.38;2.75;;;11.20;99.90;;;;;;5103291;28;20096;-84
2020/12/22 04:53:18;;;;;;;4.55;2.65;;;11.20;99.90;;;;;;5103553;28;20035;-86
2020/12/22 04:56:09;;;;;;;5.38;2.95;;;11.30;99.90;;;;;;5102996;28;20028;-85
2020/12/22 04:58:38;;;;;;;5.35;2.38;;;11.30;99.90;;;;;;5103385;28;20031;-81
2020/12/22 05:01:07;;;;;;;3.80;2.05;;;11.40;99.90;;;;;;5102627;28;20385;-86
2020/12/22 05:03:38;;;;;;;3.22;1.80;;;11.30;99.90;;;;;;5103187;28;20048;-83
2020/12/22 05:06:07;;;;;;;2.15;1.40;;;11.40;99.90;;;;;;5103464;28;20024;-79
2020/12/22 05:08:41;;;;;;;7.40;2.22;;;11.40;99.90;;;;;;5104961;28;20388;-83
2020/12/22 05:11:17;;;;;;;3.47;2.10;;;11.40;99.90;;;;;;5104347;28;20028;-82
2020/12/22 05:13:43;;;;;;;4.45;1.55;;;11.50;99.90;;;;;;5103829;28;20034;-80
2020/12/22 05:16:11;;;;;;;2.83;1.60;;;11.50;99.90;;;;;;5102888;28;20052;-82
2020/12/22 05:19:01;;;;;;;3.95;1.48;;;11.50;99.90;;;;;;5104196;28;20024;-82
2020/12/22 05:21:35;;;;;;;3.65;1.60;;;11.60;99.90;;;;;;5103538;28;20028;-84
2020/12/22 05:24:13;;;;;;;2.75;1.52;;;11.60;99.90;;;;;;5103415;28;20451;-84
2020/12/22 05:26:46;;;;;;;1.27;0.90;;;11.60;99.90;;;;;;5103074;28;20055;-83
2020/12/22 05:29:19;;;;;;;2.97;1.55;;;11.60;99.90;;;;;;5103564;28;20035;-85
2020/12/22 05:31:49;;;;;;;2.05;1.30;;;11.60;99.90;;;;;;5103286;28;20020;-82
2020/12/22 05:34:16;;;;;;;3.22;1.30;;;11.60;99.90;;;;;;5103326;28;20024;-78
2020/12/22 05:36:55;;;;;;;1.75;1.13;;;11.70;99.90;;;;;;5102459;28;20040;-82
2020/12/22 05:39:21;;;;;;;2.88;1.58;;;11.60;99.90;;;;;;5102996;28;20050;-81
2020/12/22 05:41:53;;;;;;;2.90;1.27;;;11.70;99.90;;;;;;5102129;28;20024;-83
2020/12/22 05:44:29;;;;;;;1.90;1.40;;;11.70;99.90;;;;;;5103182;28;20052;-87
2020/12/22 05:47:02;;;;;;;2.17;1.60;;;11.70;99.90;;;;;;5103422;28;20035;-82
2020/12/22 05:49:49;;;;;;;3.10;1.67;;;11.70;99.90;;;;;;5103618;28;20054;-85
2020/12/22 05:52:52;;;;;;;3.08;1.42;;;11.70;99.90;;;;;;5104530;28;20028;-84
2020/12/22 05:55:44;;;;;;;2.55;1.73;;;11.80;99.90;;;;;;5102038;28;20032;-82
2020/12/22 05:58:14;;;;;;;2.80;1.33;;;11.70;99.90;;;;;;5100803;28;20048;-81
2020/12/22 06:00:42;;;;;;;3.90;1.85;;;11.70;99.90;;;;;;5102609;28;20073;-79
2020/12/22 06:03:13;;;;;;;3.20;1.65;;;11.80;99.90;;;;;;5104550;28;20047;-79
2020/12/22 06:05:47;;;;;;;2.25;1.75;;;11.80;99.90;;;;;;5104050;28;20047;-80
2020/12/22 06:08:21;;;;;;;3.00;1.63;;;11.80;99.90;;;;;;5103000;28;20099;-78
2020/12/22 06:10:46;;;;;;;3.20;1.60;;;11.80;99.90;;;;;;5103220;28;20027;-77
2020/12/22 06:13:15;;;;;;;4.65;2.15;;;11.80;99.90;;;;;;5103976;28;20025;-80
2020/12/22 06:15:40;;;;;;;3.55;1.80;;;11.80;99.90;;;;;;5102995;28;20068;-78
2020/12/22 06:18:06;;;;;;;10.90;1.58;;;11.80;99.90;;;;;;5103049;28;20039;-80
2020/12/22 06:20:33;;;;;;;4.03;1.80;;;11.80;99.90;;;;;;5102795;28;20030;-80
2020/12/22 06:23:06;;;;;;;5.18;2.83;;;11.80;99.90;;;;;;5104480;28;20046;-80
2020/12/22 06:25:36;;;;;;;6.13;2.10;;;11.80;99.90;;;;;;5104602;28;20028;-79
2020/12/22 06:28:02;;;;;;;2.55;1.58;;;11.80;99.90;;;;;;5103973;28;20036;-80
2020/12/22 06:30:36;;;;;;;2.60;1.35;;;11.80;99.90;;;;;;5103140;28;20028;-82
2020/12/22 06:33:39;;;;;;;5.55;1.00;;;11.80;99.90;;;;;;5102922;28;20028;-83
2020/12/22 06:36:10;;;;;;;2.25;1.30;;;11.80;99.90;;;;;;5101558;28;20043;-83
2020/12/22 06:38:53;;;;;;;2.15;1.23;;;11.80;99.90;;;;;;5104670;28;20044;-77
2020/12/22 06:41:43;;;;;;;3.85;1.40;;;11.80;99.90;;;;;;5103151;28;20028;-77
2020/12/22 06:44:26;;;;;;;1.25;0.85;;;11.80;99.90;;;;;;5104213;28;20458;-77
2020/12/22 06:46:57;;;;;;;2.10;1.23;;;11.80;99.90;;;;;;5102870;28;20035;-80
2020/12/22 06:49:45;;;;;;;2.80;1.60;;;11.80;99.90;;;;;;5102783;28;20040;-76
2020/12/22 06:52:29;;;;;;;2.50;1.08;;;11.80;99.90;;;;;;5105191;28;20024;-78
2020/12/22 06:54:55;;;;;;;2.90;1.30;;;11.80;99.90;;;;;;5106336;28;20020;-78
2020/12/22 06:57:44;;;;;;;2.25;1.50;;;11.80;99.90;;;;;;5107533;28;20301;-77
2020/12/22 07:00:27;;;;;;;3.40;2.03;;;11.80;99.90;;;;;;5106097;28;20040;-78
2020/12/22 07:03:09;;;;;;;2.90;1.77;;;11.80;99.90;;;;;;5107532;28;20032;-80
2020/12/22 07:05:42;;;;;;;3.03;1.75;;;11.80;99.90;;;;;;5106014;28;20039;-77
2020/12/22 07:08:08;;;;;;;3.25;1.90;;;11.80;99.90;;;;;;5106054;28;20039;-77
2020/12/22 07:10:43;;;;;;;3.08;1.70;;;11.80;99.90;;;;;;5107179;28;20028;-78
2020/12/22 07:13:11;;;;;;;2.42;1.38;;;11.80;99.90;;;;;;5095859;28;20115;-81
2020/12/22 07:15:43;;;;;;;4.63;1.67;;;11.80;99.90;;;;;;5081813;28;20045;-76
2020/12/22 07:18:18;;;;;;;6.80;1.42;;;11.70;99.90;;;;;;5082788;28;20056;-80
2020/12/22 07:20:45;;;;;;;2.72;1.55;;;11.80;99.90;;;;;;5086091;28;20032;-78
2020/12/22 07:23:12;;;;;;;2.67;1.45;;;11.80;99.90;;;;;;5086595;28;20020;-79
2020/12/22 07:25:38;;;;;;;5.55;1.20;;;11.80;99.90;;;;;;5084571;28;20025;-78
2020/12/22 07:28:07;;;;;;;4.05;1.88;;;11.80;99.90;;;;;;5084497;28;20054;-80
2020/12/22 07:30:32;;;;;;;4.03;2.15;;;11.80;99.90;;;;;;5085510;28;20035;-78
2020/12/22 07:33:00;;;;;;;1.83;1.23;;;11.80;99.90;;;;;;5084551;28;20424;-79
2020/12/22 07:35:30;;;;;;;3.65;1.42;;;11.80;99.90;;;;;;5084795;28;20032;-79
2020/12/22 07:38:09;;;;;;;6.20;2.05;;;11.80;99.90;;;;;;5084096;28;20429;-75
2020/12/22 07:40:39;;;;;;;3.63;1.85;;;11.80;99.90;;;;;;5084567;28;20058;-77
2020/12/22 07:43:09;;;;;;;4.22;2.42;;;11.80;99.90;;;;;;5083961;28;20028;-83
2020/12/22 07:45:35;;;;;;;6.32;2.35;;;11.80;99.90;;;;;;5085075;28;20031;-80
2020/12/22 07:48:05;;;;;;;4.38;2.08;;;11.80;99.90;;;;;;5085304;28;20076;-79
2020/12/22 07:50:31;;;;;;;9.18;1.98;;;11.70;99.90;;;;;;5083710;28;20119;-81
2020/12/22 07:52:58;;;;;;;3.50;2.03;;;11.80;99.90;;;;;;5085073;28;20055;-78
2020/12/22 07:55:24;;;;;;;4.35;2.08;;;11.80;99.90;;;;;;5083889;28;20031;-79
2020/12/22 07:57:51;;;;;;;2.53;1.85;;;11.80;99.90;;;;;;5083603;28;20055;-77
2020/12/22 08:00:16;;;;;;;3.90;1.55;;;11.80;99.90;;;;;;5083895;28;20149;-78
2020/12/22 08:02:42;;;;;;;4.57;1.30;;;11.80;99.90;;;;;;5084989;28;20104;-79
2020/12/22 08:05:09;;;;;;;4.68;1.65;;;11.80;99.90;;;;;;5084958;28;20024;-79
2020/12/22 08:07:35;;;;;;;3.17;1.77;;;11.90;99.90;;;;;;5084191;28;20025;-77
2020/12/22 08:10:13;;;;;;;2.15;1.30;;;11.80;99.90;;;;;;5084034;28;20399;-78
2020/12/22 08:12:39;;;;;;;2.42;1.40;;;11.90;99.90;;;;;;5084896;28;20032;-78
2020/12/22 08:15:09;;;;;;;2.08;1.52;;;11.80;99.90;;;;;;5082626;28;20051;-79
2020/12/22 08:17:43;;;;;;;3.05;1.58;;;11.80;99.90;;;;;;5083885;28;20047;-83
2020/12/22 08:20:08;;;;;;;2.63;1.38;;;11.80;99.90;;;;;;5085222;28;20032;-79
2020/12/22 08:22:36;;;;;;;9.90;1.63;;;11.80;99.90;;;;;;5085092;28;20028;-78
2020/12/22 08:25:02;;;;;;;6.82;1.77;;;11.90;99.90;;;;;;5084148;28;20088;-78
2020/12/22 08:27:31;;;;;;;8.85;1.50;;;11.90;99.90;;;;;;5085070;28;20036;-77
2020/12/22 08:29:58;;;;;;;2.40;1.02;;;11.90;99.90;;;;;;5083264;28;20029;-81
2020/12/22 08:32:25;;;;;;;3.33;1.50;;;11.90;99.90;;;;;;5081492;28;20089;-79
2020/12/22 08:34:53;;;;;;;4.95;1.90;;;11.90;99.90;;;;;;5083206;28;20051;-79
2020/12/22 08:37:24;;;;;;;3.63;1.20;;;11.90;99.90;;;;;;5083981;28;20047;-77
2020/12/22 08:39:50;;;;;;;3.92;1.40;;;11.80;99.90;;;;;;5082790;28;20028;-77
2020/12/22 08:42:16;;;;;;;9.02;1.83;;;11.90;99.90;;;;;;5084461;28;20031;-77
2020/12/22 08:44:52;;;;;;;2.40;1.33;;;11.90;99.90;;;;;;5084043;28;20063;-77
2020/12/22 08:47:19;;;;;;;2.22;1.30;;;11.90;99.90;;;;;;5082008;28;20460;-78
2020/12/22 08:49:46;;;;;;;5.13;2.45;;;11.90;99.90;;;;;;5083790;28;20025;-78
2020/12/22 08:52:16;;;;;;;6.55;1.98;;;11.90;99.90;;;;;;5082699;28;20046;-80
2020/12/22 08:54:45;;;;;;;4.72;2.50;;;11.90;99.90;;;;;;5083785;28;20074;-79
2020/12/22 08:57:13;;;;;;;3.08;2.13;;;11.90;99.90;;;;;;5082104;28;20036;-78
2020/12/22 08:59:38;;;;;;;9.98;2.13;;;11.90;99.90;;;;;;5083349;28;20024;-78
2020/12/22 09:02:04;;;;;;;3.65;1.77;;;11.90;99.90;;;;;;5082190;28;20052;-80
2020/12/22 09:04:31;;;;;;;4.05;1.88;;;12.00;99.90;;;;;;5082398;28;20032;-79
2020/12/22 09:06:59;;;;;;;3.25;1.30;;;12.00;99.90;;;;;;5083536;28;20063;-77
2020/12/22 09:09:32;;;;;;;3.20;1.45;;;12.00;99.90;;;;;;5084436;28;20025;-78
2020/12/22 09:12:07;;;;;;;3.92;1.70;;;12.00;99.90;;;;;;5084754;28;20090;-79
2020/12/22 09:14:47;;;;;;;1.67;1.17;;;12.00;99.90;;;;;;5083826;28;20060;-79
2020/12/22 09:17:30;;;;;;;2.53;1.35;;;12.00;99.90;;;;;;5083398;28;20067;-77
2020/12/22 09:19:56;;;;;;;2.40;1.40;;;12.00;99.90;;;;;;5085077;28;20408;-78
2020/12/22 09:22:24;;;;;;;6.53;1.55;;;12.10;99.90;;;;;;5082924;28;20032;-78
2020/12/22 09:25:00;;;;;;;2.25;1.40;;;12.00;99.90;;;;;;5083717;28;20035;-79
2020/12/22 09:27:38;;;;;;;1.58;1.10;;;12.00;99.90;;;;;;5085730;28;20030;-83
2020/12/22 09:30:09;;;;;;;1.95;1.35;;;12.00;99.90;;;;;;5082352;28;20055;-79
2020/12/22 09:32:35;;;;;;;1.35;1.05;;;12.00;99.90;;;;;;5084375;28;20021;-78
2020/12/22 09:35:02;;;;;;;3.78;1.33;;;12.00;99.90;;;;;;5082464;28;20085;-79
2020/12/22 09:37:29;;;;;;;8.02;2.28;;;12.00;99.90;;;;;;5082725;28;20040;-80
2020/12/22 09:39:55;;;;;;;3.35;1.38;;;12.00;99.90;;;;;;5083041;28;20060;-78
2020/12/22 09:42:23;;;;;;;5.82;1.80;;;12.00;99.90;;;;;;5083631;28;20025;-78
2020/12/22 09:44:49;;;;;;;1.48;0.75;;;12.00;99.90;;;;;;5082508;28;20104;-78
2020/12/22 09:47:16;;;;;;;7.32;1.33;;;12.00;99.90;;;;;;5084111;28;20036;-78
2020/12/22 09:49:42;;;;;;;5.00;1.35;;;12.00;99.90;;;;;;5081848;28;20337;-78
2020/12/22 09:52:07;;;;;;;4.13;1.10;;;12.00;99.90;;;;;;5082653;28;20048;-80
2020/12/22 09:54:33;;;;;;;2.33;1.10;;;12.00;99.90;;;;;;5082242;28;20478;-80
2020/12/22 09:56:59;;;;;;;0.75;0.68;;;12.00;99.90;;;;;;5083183;28;20040;-78
2020/12/22 09:59:25;;;;;;;1.00;0.77;;;12.00;99.90;;;;;;5082746;28;20096;-79
2020/12/22 10:01:51;;;;;;;2.75;1.58;;;12.00;99.90;;;;;;5082455;28;20029;-80
2020/12/22 10:04:17;;;;;;;1.17;0.90;;;12.00;99.90;;;;;;5083536;28;20449;-78
2020/12/22 10:06:43;;;;;;;4.40;1.10;;;12.00;99.90;;;;;;5083592;28;20031;-80
2020/12/22 10:09:08;;;;;;;6.40;0.88;;;12.00;99.90;;;;;;5083270;28;20028;-81
2020/12/22 10:11:35;;;;;;;2.28;1.23;;;12.00;99.90;;;;;;5082215;28;20074;-81
2020/12/22 10:14:03;;;;;;;1.80;1.00;;;12.00;99.90;;;;;;5083198;28;20039;-81
2020/12/22 10:16:28;;;;;;;2.35;1.00;;;12.00;99.90;;;;;;5081772;28;20135;-80
2020/12/22 10:18:54;;;;;;;2.13;0.90;;;12.00;99.90;;;;;;5083193;28;20064;-79
2020/12/22 10:21:20;;;;;;;1.30;0.70;;;12.00;99.90;;;;;;5082459;28;20025;-80
2020/12/22 10:23:48;;;;;;;3.10;1.10;;;12.00;99.90;;;;;;5083135;28;20017;-83
2020/12/22 10:26:16;;;;;;;2.10;1.02;;;12.10;99.90;;;;;;5083659;28;20083;-82
2020/12/22 10:28:43;;;;;;;1.48;1.10;;;12.00;99.90;;;;;;5087012;28;20060;-79
2020/12/22 10:31:19;;;;;;;5.40;0.75;;;12.00;99.90;;;;;;5085867;28;20039;-77
2020/12/22 10:33:46;;;;;;;2.45;1.10;;;11.90;99.90;;;;;;5086835;28;20039;-80
2020/12/22 10:36:17;;;;;;;2.25;1.23;;;11.80;99.90;;;;;;5087142;28;20040;-77
2020/12/22 10:38:43;;;;;;;1.40;0.82;;;11.90;99.90;;;;;;5086093;28;20165;-79
2020/12/22 10:41:09;;;;;;;0.98;0.68;;;11.80;99.90;;;;;;5088181;28;20028;-81
2020/12/22 10:43:41;;;;;;;2.00;1.05;;;11.80;99.90;;;;;;5092591;28;20035;-80
2020/12/22 10:46:07;;;;;;;0.52;0.30;;;11.70;99.90;;;;;;5087681;28;20024;-81
2020/12/22 10:48:32;;;;;;;0.90;0.30;;;11.70;99.90;;;;;;5087708;28;20424;-82
2020/12/22 10:50:59;;;;;;;1.38;0.55;;;11.50;99.90;;;;;;5086215;28;20031;-80
2020/12/22 10:53:28;;;;;;;0.65;0.57;;;11.30;99.90;;;;;;5087015;28;20021;-83
2020/12/22 10:55:54;;;;;;;0.43;0.30;;;11.20;99.90;;;;;;5087420;28;20040;-83
2020/12/22 10:58:33;;;;;;;0.60;0.40;;;11.20;99.90;;;;;;5085421;28;20477;-81
2020/12/22 11:01:08;;;;;;;0.55;0.32;;;11.20;99.90;;;;;;5086821;28;20025;-83
2020/12/22 11:03:34;;;;;;;0.70;0.45;;;11.10;99.90;;;;;;5086033;28;20044;-81
2020/12/22 11:06:22;;;;;;;0.40;0.28;;;11.00;99.90;;;;;;5083921;28;20028;-80
2020/12/22 11:08:48;;;;;;;2.47;0.80;;;11.00;99.90;;;;;;5086817;28;20093;-80
2020/12/22 11:11:14;;;;;;;6.00;1.90;;;10.90;99.90;;;;;;5086469;28;20028;-81
2020/12/22 11:13:40;;;;;;;1.45;0.85;;;10.90;99.90;;;;;;5086305;28;20029;-80
2020/12/22 11:16:10;;;;;;;3.03;1.50;;;10.80;99.90;;;;;;5086497;28;20056;-81
2020/12/22 11:18:39;;;;;;;3.70;1.52;;;10.90;99.90;;;;;;5087340;28;20024;-81
2020/12/22 11:21:11;;;;;;;3.55;1.58;;;11.10;99.90;;;;;;5086567;28;20040;-77
2020/12/22 11:23:37;;;;;;;2.38;1.38;;;11.40;99.90;;;;;;5086510;28;20051;-79
2020/12/22 11:26:04;;;;;;;4.03;2.10;;;11.50;99.90;;;;;;5086353;28;20024;-80
2020/12/22 11:28:29;;;;;;;2.10;1.50;;;11.40;99.90;;;;;;5086167;28;20583;-81
2020/12/22 11:30:55;;;;;;;2.33;2.05;;;11.20;99.90;;;;;;5085334;28;20036;-81
2020/12/22 11:33:21;;;;;;;3.00;1.73;;;11.00;99.90;;;;;;5085415;28;20024;-79
2020/12/22 11:35:46;;;;;;;3.90;1.92;;;10.90;99.90;;;;;;5085693;28;20024;-80
2020/12/22 11:38:12;;;;;;;8.18;1.52;;;10.70;99.90;;;;;;5084684;28;20041;-83
2020/12/22 11:40:37;;;;;;;2.65;1.25;;;10.70;99.90;;;;;;5084869;28;20025;-85
2020/12/22 11:43:03;;;;;;;3.28;1.10;;;10.60;99.90;;;;;;5085980;28;20127;-81
2020/12/22 11:45:28;;;;;;;12.90;1.13;;;10.60;99.90;;;;;;5085928;28;20027;-81
2020/12/22 11:47:54;;;;;;;4.95;1.45;;;10.40;99.90;;;;;;5084336;28;20032;-80
2020/12/22 11:50:20;;;;;;;3.30;1.75;;;10.40;99.90;;;;;;5084229;28;20066;-80
2020/12/22 11:52:45;;;;;;;3.97;1.45;;;10.30;99.90;;;;;;5084475;28;20070;-80
2020/12/22 11:55:11;;;;;;;2.15;1.02;;;10.20;99.90;;;;;;5084561;28;20028;-81
2020/12/22 11:57:36;;;;;;;5.50;1.55;;;10.10;99.90;;;;;;5084659;28;20048;-82
2020/12/22 12:00:05;;;;;;;2.15;1.27;;;10.00;99.90;;;;;;5086197;28;20024;-81
2020/12/22 12:02:31;;;;;;;5.28;1.80;;;10.00;99.90;;;;;;5084220;28;20042;-81
2020/12/22 12:04:56;;;;;;;3.25;1.90;;;10.00;99.90;;;;;;5086053;28;20076;-80
2020/12/22 12:07:22;;;;;;;4.10;1.92;;;10.00;99.90;;;;;;5084518;28;20092;-83
2020/12/22 12:09:47;;;;;;;2.70;1.60;;;9.90;99.90;;;;;;5085347;28;20033;-81
2020/12/22 12:12:13;;;;;;;2.65;1.42;;;9.90;99.90;;;;;;5085298;28;20025;-81
2020/12/22 12:14:39;;;;;;;5.10;2.13;;;9.90;99.90;;;;;;5084005;28;20075;-80
2020/12/22 12:17:04;;;;;;;2.67;1.48;;;9.90;99.90;;;;;;5085182;28;20036;-83
2020/12/22 12:19:32;;;;;;;2.83;1.40;;;9.90;99.90;;;;;;5085640;28;20057;-82
2020/12/22 12:22:02;;;;;;;3.65;1.83;;;9.90;99.90;;;;;;5084270;28;20055;-85
2020/12/22 12:24:30;;;;;;;3.00;1.60;;;9.90;99.90;;;;;;5085058;28;20024;-87
2020/12/22 12:26:56;;;;;;;5.88;1.70;;;10.00;99.90;;;;;;5084019;28;20131;-85
2020/12/22 12:29:22;;;;;;;4.53;2.05;;;9.90;99.90;;;;;;5083498;28;20040;-80
2020/12/22 12:31:48;;;;;;;1.90;1.45;;;9.90;99.90;;;;;;5083697;28;20035;-83
2020/12/22 12:34:14;;;;;;;10.63;1.88;;;9.90;99.90;;;;;;5084187;28;20039;-80
2020/12/22 12:36:41;;;;;;;3.63;1.75;;;9.90;99.90;;;;;;5083035;28;20469;-83
2020/12/22 12:39:07;;;;;;;2.10;0.93;;;9.80;99.90;;;;;;5084440;28;20027;-83
2020/12/22 12:41:32;;;;;;;5.05;1.90;;;9.80;99.90;;;;;;5084028;28;20021;-85
2020/12/22 12:43:58;;;;;;;3.55;1.40;;;9.80;99.90;;;;;;5064309;28;20047;-84
2020/12/22 12:46:25;;;;;;;3.60;1.23;;;9.80;99.90;;;;;;5062992;28;20079;-84
2020/12/22 12:48:52;;;;;;;2.13;1.20;;;9.80;99.90;;;;;;5063786;28;20021;-86
2020/12/22 12:51:17;;;;;;;2.45;0.95;;;9.80;99.90;;;;;;5061502;28;20063;-83
2020/12/22 12:53:44;;;;;;;2.92;1.45;;;9.90;99.90;;;;;;5061763;28;20048;-86
2020/12/22 12:56:19;;;;;;;2.42;1.00;;;9.80;99.90;;;;;;5061024;28;20027;-86
2020/12/22 12:58:44;;;;;;;3.72;1.70;;;9.80;99.90;;;;;;5062732;28;20037;-85
2020/12/22 13:01:11;;;;;;;1.75;0.98;;;9.80;99.90;;;;;;5060900;28;20358;-90
2020/12/22 13:03:41;;;;;;;2.95;1.73;;;9.90;99.90;;;;;;5058358;28;20078;-87
2020/12/22 13:06:08;;;;;;;1.58;1.05;;;9.90;99.90;;;;;;5075916;28;20036;-89